Colorado Star — 9HA2189 — position and weather

sailwx.info

Track history (hours):
 
Tides and Currents Weather Stations Pressure Air Temp Water Temp Dewpoint Dewpoint Depression Visibility Wind Speed Wind Dir Waves Ship Positions

Colorado Star

Last reported at 2014-Oct-18 21:19 UTC. Time now 2014-Oct-23 00:45 UTC.
Position N 46°35' W 072°01'.

Length 128 m; draft 5.6 m.

Type: Ship. MMSI: 248127000.

Date/timePositionNaut miles runAvg speedWind from/ knotsBaromVisibWave heightAir tempDewpointWater temp
2014-Oct-18 21:19N 46°35' W 072°01'1114.2
2014-Oct-18 20:32N 46°29' W 072°14'1414.0
2014-Oct-18 19:33N 46°21' W 072°30'1312.9
2014-Oct-18 18:33N 46°14' W 072°46'1413.9
2014-Oct-18 17:32N 46°05' W 073°01'1212.6
2014-Oct-18 16:33N 45°55' W 073°13'1414.2
2014-Oct-18 15:33N 45°44' W 073°25'1111.4
2014-Oct-18 14:33N 45°33' W 073°31'0 0.1
2014-Oct-18 13:31N 45°33' W 073°31'0 0.0
2014-Oct-18 12:13N 45°33' W 073°31'0 0.0
2014-Oct-18 11:31N 45°33' W 073°31'0 0.0
2014-Oct-18 10:31N 45°33' W 073°31'0 0.0
2014-Oct-18 09:31N 45°33' W 073°31'0 0.0
2014-Oct-18 08:31N 45°33' W 073°31'0 0.0
2014-Oct-18 07:31N 45°33' W 073°31'0 0.0
2014-Oct-18 06:31N 45°33' W 073°31'0 0.0
2014-Oct-18 05:31N 45°33' W 073°31'0 0.0
2014-Oct-18 04:31N 45°33' W 073°31'0 0.0
2014-Oct-18 03:31N 45°33' W 073°31'0 0.0
2014-Oct-17 21:32N 45°33' W 073°31'4 3.8
2014-Oct-17 20:33N 45°30' W 073°31'2 1.7
2014-Oct-17 19:33N 45°28' W 073°30'4 3.7
2014-Oct-17 18:33N 45°24' W 073°32'2 2.4
2014-Oct-17 17:33N 45°24' W 073°35'6 6.0
2014-Oct-17 16:33N 45°24' W 073°44'9 9.5
2014-Oct-17 15:33N 45°19' W 073°55'1 1.2
2014-Oct-17 14:33N 45°18' W 073°56'9 9.4
2014-Oct-17 13:33N 45°14' W 074°08'1312.9
2014-Oct-17 12:34N 45°08' W 074°24'97 8.6
2014-Oct-17 01:16N 44°12' W 076°16'7 9.8
2014-Oct-17 00:33N 44°07' W 076°22'1313.2
2014-Oct-16 23:33N 43°56' W 076°33'4 0.1
2014-Oct-14 21:33N 43°60' W 076°34'1211.7
2014-Oct-14 20:33N 44°08' W 076°22'9 8.7
2014-Oct-14 19:33N 44°13' W 076°12'98 7.5
2014-Oct-14 06:34N 45°10' W 074°21'1010.0
2014-Oct-14 05:33N 45°14' W 074°08'8 8.3
2014-Oct-14 04:33N 45°17' W 073°57'2 2.3
2014-Oct-14 03:33N 45°19' W 073°55'1 1.3
2014-Oct-14 02:33N 45°20' W 073°54'1 0.7
2014-Oct-14 01:33N 45°20' W 073°53'5 5.5
2014-Oct-14 00:33N 45°24' W 073°47'7 6.7
2014-Oct-13 23:33N 45°24' W 073°38'3 2.9
2014-Oct-13 22:33N 45°24' W 073°34'4 3.7
2014-Oct-13 21:33N 45°27' W 073°30'3 2.6
2014-Oct-13 20:33N 45°30' W 073°31'1 1.0
2014-Oct-13 19:34N 45°31' W 073°31'1 1.4
2014-Oct-13 18:34N 45°32' W 073°32'3 3.3
2014-Oct-13 17:33N 45°35' W 073°30'3 3.1
2014-Oct-13 16:33N 45°38' W 073°29'0 0.1
2014-Oct-13 15:32N 45°38' W 073°29'0 0.0
2014-Oct-13 14:32N 45°38' W 073°29'0 0.0
2014-Oct-13 13:32N 45°38' W 073°29'0 0.0
2014-Oct-13 12:32N 45°38' W 073°29'0 0.0
2014-Oct-13 11:32N 45°38' W 073°29'0 0.0
2014-Oct-13 10:32N 45°38' W 073°29'0 0.0
2014-Oct-13 09:32N 45°38' W 073°29'0 0.0
2014-Oct-13 08:32N 45°38' W 073°29'2 1.9
2014-Oct-13 07:33N 45°40' W 073°28'10 9.7
2014-Oct-13 06:33N 45°48' W 073°20'10 9.8
2014-Oct-13 05:33N 45°56' W 073°13'9 8.8
2014-Oct-13 04:33N 46°04' W 073°05'10 9.8
2014-Oct-13 03:33N 46°11' W 072°55'1111.1
2014-Oct-13 02:33N 46°16' W 072°41'9 8.6
2014-Oct-13 01:33N 46°21' W 072°31'10 9.9
2014-Oct-13 00:33N 46°26' W 072°19'9 9.1
2014-Oct-12 23:33N 46°33' W 072°10'10 8.4
2014-Oct-12 22:22N 46°38' W 071°57'  
Track history (hours):
 
Tides and Currents Weather Stations Pressure Air Temp Water Temp Dewpoint Dewpoint Depression Visibility Wind Speed Wind Dir Waves Ship Positions

Colorado Star

Last reported at 2014-Oct-18 21:19 UTC. Time now 2014-Oct-23 00:45 UTC.
Position N 46°35' W 072°01'.

Length 128 m; draft 5.6 m.

Type: Ship. MMSI: 248127000.

Date/timePositionNaut miles runAvg speedWind from/ knotsBaromVisibWave heightAir tempDewpointWater temp
2014-Oct-18 21:19N 46°35' W 072°01'1114.2
2014-Oct-18 20:32N 46°29' W 072°14'1414.0
2014-Oct-18 19:33N 46°21' W 072°30'1312.9
2014-Oct-18 18:33N 46°14' W 072°46'1413.9
2014-Oct-18 17:32N 46°05' W 073°01'1212.6
2014-Oct-18 16:33N 45°55' W 073°13'1414.2
2014-Oct-18 15:33N 45°44' W 073°25'1111.4
2014-Oct-18 14:33N 45°33' W 073°31'0 0.1
2014-Oct-18 13:31N 45°33' W 073°31'0 0.0
2014-Oct-18 12:13N 45°33' W 073°31'0 0.0
2014-Oct-18 11:31N 45°33' W 073°31'0 0.0
2014-Oct-18 10:31N 45°33' W 073°31'0 0.0
2014-Oct-18 09:31N 45°33' W 073°31'0 0.0
2014-Oct-18 08:31N 45°33' W 073°31'0 0.0
2014-Oct-18 07:31N 45°33' W 073°31'0 0.0
2014-Oct-18 06:31N 45°33' W 073°31'0 0.0
2014-Oct-18 05:31N 45°33' W 073°31'0 0.0
2014-Oct-18 04:31N 45°33' W 073°31'0 0.0
2014-Oct-18 03:31N 45°33' W 073°31'0 0.0
2014-Oct-17 21:32N 45°33' W 073°31'4 3.8
2014-Oct-17 20:33N 45°30' W 073°31'2 1.7
2014-Oct-17 19:33N 45°28' W 073°30'4 3.7
2014-Oct-17 18:33N 45°24' W 073°32'2 2.4
2014-Oct-17 17:33N 45°24' W 073°35'6 6.0
2014-Oct-17 16:33N 45°24' W 073°44'9 9.5
2014-Oct-17 15:33N 45°19' W 073°55'1 1.2
2014-Oct-17 14:33N 45°18' W 073°56'9 9.4
2014-Oct-17 13:33N 45°14' W 074°08'1312.9
2014-Oct-17 12:34N 45°08' W 074°24'97 8.6
2014-Oct-17 01:16N 44°12' W 076°16'7 9.8
2014-Oct-17 00:33N 44°07' W 076°22'1313.2
2014-Oct-16 23:33N 43°56' W 076°33'4 0.1
2014-Oct-14 21:33N 43°60' W 076°34'1211.7
2014-Oct-14 20:33N 44°08' W 076°22'9 8.7
2014-Oct-14 19:33N 44°13' W 076°12'98 7.5
2014-Oct-14 06:34N 45°10' W 074°21'1010.0
2014-Oct-14 05:33N 45°14' W 074°08'8 8.3
2014-Oct-14 04:33N 45°17' W 073°57'2 2.3
2014-Oct-14 03:33N 45°19' W 073°55'1 1.3
2014-Oct-14 02:33N 45°20' W 073°54'1 0.7
2014-Oct-14 01:33N 45°20' W 073°53'5 5.5
2014-Oct-14 00:33N 45°24' W 073°47'7 6.7
2014-Oct-13 23:33N 45°24' W 073°38'3 2.9
2014-Oct-13 22:33N 45°24' W 073°34'4 3.7
2014-Oct-13 21:33N 45°27' W 073°30'3 2.6
2014-Oct-13 20:33N 45°30' W 073°31'1 1.0
2014-Oct-13 19:34N 45°31' W 073°31'1 1.4
2014-Oct-13 18:34N 45°32' W 073°32'3 3.3
2014-Oct-13 17:33N 45°35' W 073°30'3 3.1
2014-Oct-13 16:33N 45°38' W 073°29'0 0.1
2014-Oct-13 15:32N 45°38' W 073°29'0 0.0
2014-Oct-13 14:32N 45°38' W 073°29'0 0.0
2014-Oct-13 13:32N 45°38' W 073°29'0 0.0
2014-Oct-13 12:32N 45°38' W 073°29'0 0.0
2014-Oct-13 11:32N 45°38' W 073°29'0 0.0
2014-Oct-13 10:32N 45°38' W 073°29'0 0.0
2014-Oct-13 09:32N 45°38' W 073°29'0 0.0
2014-Oct-13 08:32N 45°38' W 073°29'2 1.9
2014-Oct-13 07:33N 45°40' W 073°28'10 9.7
2014-Oct-13 06:33N 45°48' W 073°20'10 9.8
2014-Oct-13 05:33N 45°56' W 073°13'9 8.8
2014-Oct-13 04:33N 46°04' W 073°05'10 9.8
2014-Oct-13 03:33N 46°11' W 072°55'1111.1
2014-Oct-13 02:33N 46°16' W 072°41'9 8.6
2014-Oct-13 01:33N 46°21' W 072°31'10 9.9
2014-Oct-13 00:33N 46°26' W 072°19'9 9.1
2014-Oct-12 23:33N 46°33' W 072°10'10 8.4
2014-Oct-12 22:22N 46°38' W 071°57'  

Dump ship's entire track history